FAUT

Details ICAO FAUT (UTT)
Name MTHATHA
Region South Africa
Timezone Africa/Johannesburg (UTC+2.0)
Plans Departing 0
Arriving 3
Stats Elevation 2,400 ft / 732 m (AMSL)
Location -31.546270° 28.675151°
Runways 2
Magnetic Variation 26.930° W
Sunrise 2017-12-18 02:57:12 UTC / 2017-12-18 04:57:12 Local
Sunset 2017-12-18 17:09:15 UTC / 2017-12-18 19:09:15 Local
Advertisement - Login to hide

Runways

ID Width Length Bearing (true) Bearing (mag) Surface Threshold Offset Overrun Length
09 98 ft / 30 m 5,018 ft / 1,529 m 68.82° 95.75° Dirt 0 ft / 0 m 0 ft / 0 m
14 75 ft / 23 m 6,518 ft / 1,987 m 113.54° 140.47° Asphalt 0 ft / 0 m 0 ft / 0 m
27 98 ft / 30 m 5,018 ft / 1,529 m 248.81° 275.74° Dirt 0 ft / 0 m 0 ft / 0 m
32 75 ft / 23 m 6,518 ft / 1,987 m 293.53° 320.46° Asphalt 0 ft / 0 m 0 ft / 0 m

Map

Weather


0- 5 10 15 20 25 30 35+ Temperature / ° C

Clouds and Precipitation
Forecast for 2017-12-18 18:00 UTC. Updated 2 hours ago

Ground ~20,000 ft ~40,000 ft Winds

METAR

FAUT 181546Z 17007KT 5000 -RA BR BKN006 OVC008 15/14 Q1019

TAF

Not found

Frequencies

Tower 121.30 MHz MATANZIMA TWR
Warning: Do not use this data for real-world aviation or navigation. No guarantee of current accuracy is given.